Western, Nebraska
Current Conditions -  °F | °C
As of 12:35 PM on Thursday 30 Oct 2014 (Local Time) from KBIE Reporting Station
Clear Clear  
Wind Chill: 62°   Ceiling: Unl
Heat Index: 62°   Visibility: 10mi
Dew Point: 41°   Wind: 18mph
Humidity: 46%   Direction: 340°NNW
Pressure: 30.11"   Gusts: NA
Location:  40.39°N, 97.2°W
Report Text: KBIE 301735Z AUTO 34016KT 10SM CLR 17/05 A3011 RMK AO2 T01690052
Loading
Personal Weather Stations






























Interactive Weather Map
Tropical Storm Tracking
New forecast layout! Learn more

10-Day Weather Forecast

Advertisements
Track Severe Weather on mobile